createdAt,value
2023-03-16T00:00:33.834Z,4.03
2023-03-16T00:05:36.570Z,3.50
2023-03-16T00:10:39.150Z,5.47
2023-03-16T00:15:42.334Z,5.90
2023-03-16T00:20:44.784Z,5.90
2023-03-16T00:25:47.392Z,5.87
2023-03-16T00:30:50.205Z,6.07
2023-03-16T00:36:02.234Z,7.27
2023-03-16T00:41:07.058Z,6.20
2023-03-16T00:46:14.793Z,6.20
2023-03-16T00:51:19.416Z,6.10
2023-03-16T00:56:22.180Z,5.03
2023-03-16T01:01:25.254Z,5.50
2023-03-16T01:06:28.032Z,5.73
2023-03-16T01:11:30.443Z,7.20
2023-03-16T01:16:33.910Z,6.43
2023-03-16T01:21:38.312Z,6.60
2023-03-16T01:26:40.718Z,6.20
2023-03-16T01:31:43.228Z,8.27
2023-03-16T01:36:48.888Z,5.60
2023-03-16T01:41:59.342Z,5.40
2023-03-16T01:47:01.817Z,6.53
2023-03-16T01:52:14.750Z,5.23
2023-03-16T01:57:30.475Z,6.20
2023-03-16T02:02:33.263Z,6.63
2023-03-16T02:07:45.031Z,6.20
2023-03-16T02:12:48.259Z,7.00
2023-03-16T02:17:51.670Z,9.13
2023-03-16T02:22:56.142Z,6.80
2023-03-16T02:28:15.412Z,7.27
2023-03-16T02:33:21.469Z,6.33
2023-03-16T02:38:26.150Z,5.60
2023-03-16T02:43:35.240Z,6.50
2023-03-16T02:48:49.926Z,5.87
2023-03-16T02:53:52.573Z,8.43
2023-03-16T02:58:57.942Z,6.37
2023-03-16T03:04:02.658Z,7.67
2023-03-16T03:09:08.328Z,7.57
2023-03-16T03:14:10.835Z,8.90
2023-03-16T03:19:15.591Z,6.93
2023-03-16T03:24:18.838Z,6.67
2023-03-16T03:29:22.715Z,7.20
2023-03-16T03:34:26.684Z,6.20
2023-03-16T03:39:29.459Z,8.67
2023-03-16T03:44:34.690Z,8.13
2023-03-16T03:49:37.494Z,8.53
2023-03-16T03:54:40.173Z,9.87
2023-03-16T03:59:48.873Z,7.87
2023-03-16T04:05:10.073Z,7.83
2023-03-16T04:10:12.855Z,6.30
2023-03-16T04:15:18.200Z,9.47
2023-03-16T04:20:43.437Z,7.03
2023-03-16T04:25:50.562Z,8.27
2023-03-16T04:30:55.429Z,7.60
2023-03-16T04:36:09.144Z,7.77
2023-03-16T04:41:13.750Z,5.93
2023-03-16T04:46:27.117Z,6.20
2023-03-16T04:51:30.419Z,6.77
2023-03-16T04:56:53.199Z,6.80
2023-03-16T05:02:05.931Z,5.27
2023-03-16T05:07:08.985Z,6.03
2023-03-16T05:12:14.992Z,5.80
2023-03-16T05:17:20.270Z,7.07
2023-03-16T05:22:23.679Z,5.80
2023-03-16T05:27:48.506Z,5.87
2023-03-16T05:33:00.183Z,5.43
2023-03-16T05:38:04.873Z,5.23
2023-03-16T05:43:10.502Z,6.30
2023-03-16T05:48:19.118Z,5.63
2023-03-16T05:53:28.792Z,6.67
2023-03-16T05:58:35.854Z,5.37
2023-03-16T06:03:42.439Z,7.47
2023-03-16T06:08:49.250Z,5.60
2023-03-16T06:13:53.615Z,5.37
2023-03-16T06:18:59.574Z,6.07
2023-03-16T06:24:03.658Z,5.53
2023-03-16T06:29:06.812Z,4.73
2023-03-16T06:34:11.703Z,5.27
2023-03-16T06:39:15.023Z,6.20
2023-03-16T06:44:22.234Z,5.40
2023-03-16T06:49:37.906Z,7.43
2023-03-16T06:54:48.874Z,6.17
2023-03-16T06:59:54.337Z,8.10
2023-03-16T07:04:56.975Z,7.90
2023-03-16T07:10:00.205Z,8.50
2023-03-16T07:15:03.570Z,7.07
2023-03-16T07:20:10.571Z,7.47
2023-03-16T07:25:14.054Z,7.53
2023-03-16T07:30:22.114Z,7.97
2023-03-16T07:35:26.824Z,7.20
2023-03-16T07:40:31.094Z,7.97
2023-03-16T07:45:41.766Z,6.93
2023-03-16T07:50:47.171Z,7.63
2023-03-16T07:55:50.434Z,6.30
2023-03-16T08:00:58.985Z,7.53
2023-03-16T08:06:01.678Z,7.80
2023-03-16T08:11:04.364Z,6.20
2023-03-16T08:16:29.792Z,8.23
2023-03-16T08:21:36.531Z,7.87
2023-03-16T08:26:45.072Z,6.17
2023-03-16T08:31:48.019Z,7.97
2023-03-16T08:37:01.262Z,7.17
2023-03-16T08:42:04.890Z,8.00
2023-03-16T08:47:17.051Z,5.50
2023-03-16T08:52:21.057Z,6.63
2023-03-16T08:57:27.372Z,4.73
2023-03-16T09:02:29.865Z,5.60
2023-03-16T09:07:35.698Z,3.90
2023-03-16T09:12:39.214Z,5.73
2023-03-16T09:17:43.136Z,4.23
2023-03-16T09:22:45.896Z,4.43
2023-03-16T09:27:48.471Z,4.03
2023-03-16T09:32:50.973Z,5.13
2023-03-16T09:38:05.663Z,4.90
2023-03-16T09:43:19.031Z,3.60
2023-03-16T09:48:22.363Z,3.40
2023-03-16T09:53:33.521Z,3.77
2023-03-16T09:58:36.973Z,5.37
2023-03-16T10:03:57.292Z,4.07
2023-03-16T10:09:13.603Z,3.77
2023-03-16T10:14:21.485Z,3.53
2023-03-16T10:19:42.349Z,5.30
2023-03-16T10:25:09.189Z,5.80
2023-03-16T10:30:28.675Z,3.60
2023-03-16T10:36:03.950Z,6.07
2023-03-16T10:41:19.177Z,4.07
2023-03-16T10:46:22.492Z,3.67
2023-03-16T10:51:29.485Z,3.50
2023-03-16T10:56:37.518Z,3.50
2023-03-16T11:01:40.153Z,4.13
2023-03-16T11:06:53.869Z,3.40
2023-03-16T11:11:56.676Z,3.03
2023-03-16T11:17:17.774Z,4.93
2023-03-16T11:22:27.516Z,6.00
2023-03-16T11:27:56.883Z,3.90
2023-03-16T11:33:00.723Z,3.87
2023-03-16T11:38:03.195Z,2.50
2023-03-16T11:43:27.376Z,4.17
2023-03-16T11:48:57.300Z,2.33
2023-03-16T11:54:17.539Z,3.50
2023-03-16T11:59:46.245Z,3.17
2023-03-16T12:05:23.645Z,4.37
2023-03-16T12:10:36.452Z,2.57
2023-03-16T12:15:45.119Z,3.47
2023-03-16T12:20:57.196Z,2.90
2023-03-16T12:26:00.922Z,2.33
2023-03-16T12:31:19.049Z,3.70
2023-03-16T12:36:40.205Z,2.97
2023-03-16T12:42:24.911Z,2.87
2023-03-16T12:47:55.786Z,3.00
2023-03-16T12:52:58.481Z,2.30
2023-03-16T12:58:08.687Z,2.33
2023-03-16T13:03:21.549Z,2.03
2023-03-16T13:08:24.590Z,2.70
2023-03-16T13:13:28.541Z,4.73
2023-03-16T13:18:45.115Z,2.67
2023-03-16T13:23:47.524Z,2.17
2023-03-16T13:28:55.328Z,2.20
2023-03-16T13:34:00.394Z,2.40
2023-03-16T13:39:13.494Z,2.97
2023-03-16T13:44:18.913Z,4.53
2023-03-16T13:49:21.659Z,2.60
2023-03-16T13:54:30.014Z,3.00
2023-03-16T13:59:32.764Z,1.93
2023-03-16T14:04:35.303Z,2.47
2023-03-16T14:09:40.750Z,4.97
2023-03-16T14:14:46.730Z,3.20
2023-03-16T14:19:50.751Z,2.30
2023-03-16T14:25:00.772Z,2.33
2023-03-16T14:30:26.128Z,2.00
2023-03-16T14:35:43.195Z,1.90
2023-03-16T14:40:54.303Z,1.93
2023-03-16T14:45:57.565Z,2.10
2023-03-16T14:51:02.998Z,1.70
2023-03-16T14:56:13.684Z,2.03
2023-03-16T15:01:20.442Z,1.90
2023-03-16T15:06:23.087Z,1.90
2023-03-16T15:11:26.450Z,2.40
2023-03-16T15:16:29.531Z,1.60
2023-03-16T15:21:32.238Z,1.83
2023-03-16T15:26:34.732Z,1.60
2023-03-16T15:31:38.890Z,1.53
2023-03-16T15:36:41.534Z,3.87
2023-03-16T15:41:47.832Z,1.77
2023-03-16T15:46:50.663Z,2.33
2023-03-16T15:51:53.179Z,1.70
2023-03-16T15:56:56.352Z,1.73
2023-03-16T16:01:59.068Z,1.70
2023-03-16T16:07:03.021Z,2.40
2023-03-16T16:12:06.225Z,1.43
2023-03-16T16:17:15.803Z,2.00
2023-03-16T16:22:19.195Z,2.37
2023-03-16T16:27:22.029Z,2.70
2023-03-16T16:32:25.935Z,1.77
2023-03-16T16:37:28.751Z,2.30
2023-03-16T16:42:31.648Z,2.30
2023-03-16T16:47:34.361Z,2.13
2023-03-16T16:52:37.326Z,3.83
2023-03-16T16:57:40.418Z,2.63
2023-03-16T17:02:51.792Z,1.93
2023-03-16T17:07:55.003Z,2.37
2023-03-16T17:12:58.027Z,4.73
2023-03-16T17:18:13.333Z,2.20
2023-03-16T17:23:37.142Z,2.70
2023-03-16T17:28:43.339Z,4.23
2023-03-16T17:33:46.113Z,4.27
2023-03-16T17:38:48.636Z,2.80
2023-03-16T17:43:54.630Z,4.47
2023-03-16T17:48:57.645Z,2.60
2023-03-16T17:54:00.160Z,4.40
2023-03-16T17:59:14.222Z,3.50
2023-03-16T18:04:27.631Z,3.17
2023-03-16T18:09:31.503Z,2.53
2023-03-16T18:14:39.814Z,3.53
2023-03-16T18:19:43.564Z,4.20
2023-03-16T18:24:48.665Z,2.60
2023-03-16T18:29:51.045Z,2.83
2023-03-16T18:34:54.784Z,4.77
2023-03-16T18:39:57.605Z,2.83
2023-03-16T18:45:01.019Z,3.90
2023-03-16T18:50:03.608Z,3.37
2023-03-16T18:55:16.974Z,2.73
2023-03-16T19:00:26.641Z,4.17
2023-03-16T19:05:35.786Z,3.10
2023-03-16T19:10:51.253Z,4.57
2023-03-16T19:15:56.091Z,5.13
2023-03-16T19:20:58.934Z,4.07
2023-03-16T19:26:08.014Z,4.70
2023-03-16T19:31:22.561Z,3.97
2023-03-16T19:36:26.567Z,3.00
2023-03-16T19:41:34.486Z,4.27
2023-03-16T19:46:37.247Z,3.77
2023-03-16T19:51:39.675Z,3.43
2023-03-16T19:56:42.567Z,3.87
2023-03-16T20:01:46.400Z,3.47
2023-03-16T20:06:50.051Z,3.60
2023-03-16T20:11:52.587Z,3.33
2023-03-16T20:16:55.409Z,3.57
2023-03-16T20:21:58.058Z,4.83
2023-03-16T20:27:00.567Z,4.00
2023-03-16T20:32:08.249Z,4.33
2023-03-16T20:37:28.705Z,3.53
2023-03-16T20:42:34.401Z,3.80
2023-03-16T20:47:37.137Z,4.70
2023-03-16T20:52:39.755Z,4.53
2023-03-16T20:57:43.779Z,3.60
2023-03-16T21:02:47.304Z,4.57
2023-03-16T21:07:49.951Z,3.47
2023-03-16T21:12:55.877Z,4.03
2023-03-16T21:18:04.086Z,5.10
2023-03-16T21:23:16.496Z,3.83
2023-03-16T21:28:20.790Z,4.63
2023-03-16T21:33:26.187Z,4.60
2023-03-16T21:38:31.089Z,4.93
2023-03-16T21:43:33.718Z,5.50
2023-03-16T21:48:39.805Z,5.30
2023-03-16T21:53:42.790Z,4.30
2023-03-16T21:58:47.188Z,3.83
2023-03-16T22:03:55.609Z,4.10
2023-03-16T22:08:59.755Z,3.20
2023-03-16T22:14:02.231Z,4.50
2023-03-16T22:19:05.941Z,4.27
2023-03-16T22:24:16.388Z,6.63
2023-03-16T22:29:30.399Z,4.37
2023-03-16T22:34:44.417Z,7.10
2023-03-16T22:39:47.539Z,5.17
2023-03-16T22:44:49.976Z,6.87
2023-03-16T22:49:52.640Z,9.33
2023-03-16T22:54:55.832Z,6.53
2023-03-16T22:59:59.499Z,5.10
2023-03-16T23:05:02.054Z,5.77
2023-03-16T23:10:04.917Z,3.90
2023-03-16T23:15:34.518Z,3.93
2023-03-16T23:20:36.920Z,3.80
2023-03-16T23:25:39.654Z,4.30
2023-03-16T23:30:42.302Z,4.33
2023-03-16T23:35:47.067Z,9.07
2023-03-16T23:40:49.905Z,3.87
2023-03-16T23:45:52.749Z,6.10
2023-03-16T23:50:56.818Z,5.03
2023-03-16T23:55:59.970Z,3.83
